createdAt,value
2023-04-15T00:00:29.529Z,7.80
2023-04-15T00:01:29.711Z,7.40
2023-04-15T00:02:30.036Z,7.70
2023-04-15T00:03:30.480Z,7.30
2023-04-15T00:04:30.264Z,7.30
2023-04-15T00:05:30.414Z,7.50
2023-04-15T00:06:30.578Z,6.90
2023-04-15T00:07:30.741Z,7.10
2023-04-15T00:08:30.931Z,7.30
2023-04-15T00:09:31.086Z,7.40
2023-04-15T00:10:31.237Z,7.60
2023-04-15T00:11:31.405Z,7.70
2023-04-15T00:12:31.570Z,7.10
2023-04-15T00:13:31.748Z,7.80
2023-04-15T00:14:31.926Z,7.60
2023-04-15T00:15:32.082Z,7.50
2023-04-15T00:16:32.300Z,7.20
2023-04-15T00:17:32.449Z,7.70
2023-04-15T00:18:32.611Z,8.20
2023-04-15T00:19:32.779Z,8.30
2023-04-15T00:20:32.959Z,7.70
2023-04-15T00:21:33.114Z,7.70
2023-04-15T00:22:33.292Z,8.60
2023-04-15T00:23:33.494Z,8.70
2023-04-15T00:24:33.633Z,8.10
2023-04-15T00:25:33.798Z,8.70
2023-04-15T00:26:33.975Z,8.60
2023-04-15T00:27:34.156Z,8.00
2023-04-15T00:28:34.321Z,8.10
2023-04-15T00:29:34.504Z,8.50
2023-04-15T00:30:34.700Z,8.80
2023-04-15T00:31:34.850Z,8.50
2023-04-15T00:32:35.111Z,8.70
2023-04-15T00:33:35.232Z,9.40
2023-04-15T00:34:35.373Z,9.30
2023-04-15T00:35:35.541Z,10.00
2023-04-15T00:36:35.726Z,8.90
2023-04-15T00:37:35.906Z,9.00
2023-04-15T00:38:36.080Z,8.50
2023-04-15T00:39:36.254Z,8.70
2023-04-15T00:40:36.424Z,9.50
2023-04-15T00:41:36.584Z,10.40
2023-04-15T00:42:36.796Z,9.60
2023-04-15T00:43:36.955Z,10.10
2023-04-15T00:44:37.110Z,9.70
2023-04-15T00:45:37.388Z,9.90
2023-04-15T00:46:37.457Z,9.80
2023-04-15T00:47:37.699Z,9.70
2023-04-15T00:48:37.817Z,11.20
2023-04-15T00:49:38.018Z,9.60
2023-04-15T00:50:38.176Z,10.60
2023-04-15T00:51:38.375Z,10.40
2023-04-15T00:52:38.556Z,9.90
2023-04-15T00:53:38.730Z,9.60
2023-04-15T00:54:38.927Z,10.80
2023-04-15T00:55:39.091Z,10.90
2023-04-15T00:56:39.245Z,11.40
2023-04-15T00:57:39.437Z,11.30
2023-04-15T00:58:39.634Z,11.20
2023-04-15T00:59:39.794Z,11.70
2023-04-15T01:00:39.947Z,10.90
2023-04-15T01:01:40.218Z,12.20
2023-04-15T01:02:40.467Z,11.80
2023-04-15T01:03:40.738Z,12.20
2023-04-15T01:04:40.699Z,12.00
2023-04-15T01:05:40.884Z,12.80
2023-04-15T01:06:41.064Z,12.40
2023-04-15T01:07:41.246Z,11.80
2023-04-15T01:08:41.435Z,12.50
2023-04-15T01:09:41.597Z,13.30
2023-04-15T01:10:41.765Z,13.10
2023-04-15T01:11:41.975Z,13.10
2023-04-15T01:12:42.118Z,13.10
2023-04-15T01:13:42.314Z,12.80
2023-04-15T01:14:42.478Z,13.80
2023-04-15T01:15:42.727Z,13.70
2023-04-15T01:16:42.852Z,13.90
2023-04-15T01:17:43.022Z,13.70
2023-04-15T01:18:43.168Z,13.80
2023-04-15T01:19:43.363Z,13.90
2023-04-15T01:20:43.509Z,13.70
2023-04-15T01:21:43.715Z,13.80
2023-04-15T01:22:43.887Z,13.60
2023-04-15T01:23:44.044Z,15.10
2023-04-15T01:24:44.217Z,13.20
2023-04-15T01:25:44.397Z,12.50
2023-04-15T01:26:44.745Z,14.20
2023-04-15T01:27:44.739Z,14.30
2023-04-15T01:28:44.891Z,14.40
2023-04-15T01:29:45.089Z,13.30
2023-04-15T01:30:45.237Z,14.00
2023-04-15T01:31:45.443Z,14.60
2023-04-15T01:32:45.664Z,14.70
2023-04-15T01:33:45.784Z,14.20
2023-04-15T01:34:45.929Z,13.80
2023-04-15T01:35:46.091Z,15.10
2023-04-15T01:36:46.325Z,15.10
2023-04-15T01:37:46.452Z,14.90
2023-04-15T01:38:46.632Z,14.90
2023-04-15T01:39:46.828Z,15.20
2023-04-15T01:40:47.004Z,15.10
2023-04-15T01:41:47.211Z,16.00
2023-04-15T01:42:47.372Z,15.40
2023-04-15T01:43:47.527Z,15.70
2023-04-15T01:44:47.682Z,15.10
2023-04-15T01:45:47.870Z,16.20
2023-04-15T01:46:48.066Z,15.30
2023-04-15T01:47:48.327Z,16.50
2023-04-15T01:48:48.415Z,15.60
2023-04-15T01:49:48.614Z,15.50
2023-04-15T01:50:48.754Z,16.40
2023-04-15T01:51:48.941Z,16.50
2023-04-15T01:52:49.139Z,16.30
2023-04-15T01:53:49.295Z,16.30
2023-04-15T01:54:49.479Z,16.00
2023-04-15T01:55:49.676Z,17.10
2023-04-15T01:56:49.828Z,15.40
2023-04-15T01:57:50.034Z,16.30
2023-04-15T01:58:50.184Z,17.20
2023-04-15T01:59:50.378Z,17.20
2023-04-15T02:00:50.590Z,18.50
2023-04-15T02:01:50.731Z,17.80
2023-04-15T02:02:50.940Z,16.60
2023-04-15T02:03:51.153Z,16.60
2023-04-15T02:04:51.210Z,17.50
2023-04-15T02:05:51.397Z,16.90
2023-04-15T02:06:51.585Z,18.00
2023-04-15T02:07:51.794Z,17.00
2023-04-15T02:08:51.936Z,18.40
2023-04-15T02:09:52.132Z,18.80
2023-04-15T02:10:52.295Z,18.40
2023-04-15T02:11:52.464Z,18.20
2023-04-15T02:12:52.622Z,17.90
2023-04-15T02:13:52.779Z,18.40
2023-04-15T02:14:52.946Z,18.90
2023-04-15T02:15:53.126Z,19.40
2023-04-15T02:16:53.347Z,18.80
2023-04-15T02:17:53.522Z,18.40
2023-04-15T02:18:53.620Z,18.70
2023-04-15T02:19:53.805Z,18.80
2023-04-15T02:20:53.987Z,18.50
2023-04-15T02:21:54.184Z,18.30
2023-04-15T02:22:54.382Z,18.80
2023-04-15T02:23:54.529Z,19.30
2023-04-15T02:24:54.691Z,19.70
2023-04-15T02:25:54.900Z,18.40
2023-04-15T02:26:55.052Z,19.10
2023-04-15T02:27:55.248Z,19.50
2023-04-15T02:28:55.432Z,19.00
2023-04-15T02:29:55.614Z,19.30
2023-04-15T02:30:55.813Z,19.20
2023-04-15T02:31:55.992Z,19.20
2023-04-15T02:32:56.255Z,19.40
2023-04-15T02:33:56.318Z,19.50
2023-04-15T02:34:56.479Z,19.80
2023-04-15T02:35:56.678Z,19.50
2023-04-15T02:36:56.863Z,20.40
2023-04-15T02:37:57.021Z,20.20
2023-04-15T02:38:57.161Z,20.40
2023-04-15T02:39:57.369Z,19.90
2023-04-15T02:40:57.533Z,20.00
2023-04-15T02:41:57.717Z,20.30
2023-04-15T02:42:57.922Z,19.90
2023-04-15T02:43:58.076Z,19.30
2023-04-15T02:44:58.284Z,19.60
2023-04-15T02:45:58.483Z,20.10
2023-04-15T02:46:58.609Z,19.90
2023-04-15T02:47:58.998Z,21.90
2023-04-15T02:48:59.118Z,19.60
2023-04-15T02:49:59.126Z,19.80
2023-04-15T02:50:59.263Z,20.70
2023-04-15T02:51:59.476Z,21.30
2023-04-15T02:52:59.625Z,20.30
2023-04-15T02:53:59.810Z,20.00
2023-04-15T02:55:00.000Z,20.80
2023-04-15T02:56:00.184Z,20.60
2023-04-15T02:57:00.374Z,20.60
2023-04-15T02:58:00.525Z,20.60
2023-04-15T02:59:00.970Z,20.30
2023-04-15T03:00:00.876Z,20.10
2023-04-15T03:01:01.083Z,20.30
2023-04-15T03:02:01.341Z,20.90
2023-04-15T03:03:01.501Z,20.20
2023-04-15T03:04:01.636Z,19.70
2023-04-15T03:05:01.781Z,20.60
2023-04-15T03:06:01.936Z,16.90
2023-04-15T03:07:02.091Z,18.60
2023-04-15T03:08:02.293Z,19.00
2023-04-15T03:09:02.645Z,20.10
2023-04-15T03:10:02.652Z,18.40
2023-04-15T03:11:02.808Z,20.50
2023-04-15T03:12:03.076Z,18.30
2023-04-15T03:13:03.177Z,19.00
2023-04-15T03:14:03.353Z,18.50
2023-04-15T03:15:03.528Z,18.90
2023-04-15T03:16:03.719Z,19.50
2023-04-15T03:17:03.868Z,19.10
2023-04-15T03:18:04.028Z,20.40
2023-04-15T03:19:04.314Z,21.00
2023-04-15T03:20:04.396Z,19.30
2023-04-15T03:21:04.524Z,20.30
2023-04-15T03:22:04.699Z,20.50
2023-04-15T03:23:04.858Z,20.00
2023-04-15T03:24:05.060Z,19.30
2023-04-15T03:25:05.182Z,19.70
2023-04-15T03:26:05.378Z,20.30
2023-04-15T03:27:05.542Z,21.40
2023-04-15T03:28:05.704Z,20.20
2023-04-15T03:29:05.880Z,20.10
2023-04-15T03:30:06.046Z,20.60
2023-04-15T03:31:06.206Z,20.50
2023-04-15T03:32:06.388Z,20.80
2023-04-15T03:33:06.544Z,20.70
2023-04-15T03:34:06.714Z,20.40
2023-04-15T03:35:06.894Z,21.00
2023-04-15T03:36:07.086Z,21.20
2023-04-15T03:37:07.252Z,21.40
2023-04-15T03:38:07.409Z,19.70
2023-04-15T03:39:07.558Z,20.10
2023-04-15T03:40:07.745Z,22.00
2023-04-15T03:41:07.930Z,21.30
2023-04-15T03:42:08.135Z,19.10
2023-04-15T03:43:08.295Z,20.10
2023-04-15T03:44:08.487Z,20.90
2023-04-15T03:45:08.667Z,21.20
2023-04-15T03:46:08.856Z,20.00
2023-04-15T03:47:09.032Z,20.40
2023-04-15T03:48:17.311Z,19.70
2023-04-15T03:49:10.330Z,19.90
2023-04-15T03:50:09.535Z,21.50
2023-04-15T03:51:09.687Z,20.40
2023-04-15T03:52:09.893Z,20.40
2023-04-15T03:53:10.042Z,21.70
2023-04-15T03:54:10.238Z,20.90
2023-04-15T03:55:10.403Z,20.20
2023-04-15T03:56:10.595Z,19.20
2023-04-15T03:57:10.854Z,20.00
2023-04-15T03:58:10.938Z,19.60
2023-04-15T03:59:11.122Z,20.70
2023-04-15T04:00:11.313Z,19.00
2023-04-15T04:01:11.489Z,20.90
2023-04-15T04:02:11.740Z,19.90
2023-04-15T04:03:12.160Z,20.50
2023-04-15T04:04:12.079Z,20.00
2023-04-15T04:05:12.200Z,20.70
2023-04-15T04:06:12.393Z,20.90
2023-04-15T04:07:12.560Z,19.90
2023-04-15T04:08:12.732Z,21.00
2023-04-15T04:09:12.896Z,20.70
2023-04-15T04:10:13.062Z,20.70
2023-04-15T04:11:13.249Z,20.00
2023-04-15T04:12:13.414Z,19.80
2023-04-15T04:13:13.582Z,21.60
2023-04-15T04:14:13.759Z,21.90
2023-04-15T04:15:13.932Z,20.20
2023-04-15T04:16:14.178Z,17.90
2023-04-15T04:17:14.331Z,18.80
2023-04-15T04:18:14.442Z,19.80
2023-04-15T04:19:14.606Z,19.60
2023-04-15T04:20:14.799Z,20.50
2023-04-15T04:21:14.987Z,18.70
2023-04-15T04:22:15.142Z,20.40
2023-04-15T04:23:15.314Z,20.30
2023-04-15T04:24:15.493Z,19.90
2023-04-15T04:25:15.667Z,20.20
2023-04-15T04:26:15.859Z,21.40
2023-04-15T04:27:16.019Z,20.90
2023-04-15T04:28:16.186Z,21.30
2023-04-15T04:29:16.383Z,20.80
2023-04-15T04:30:16.568Z,19.20
2023-04-15T04:31:16.732Z,20.30
2023-04-15T04:32:16.984Z,20.40
2023-04-15T04:33:17.079Z,21.10
2023-04-15T04:34:17.261Z,20.20
2023-04-15T04:35:17.419Z,19.30
2023-04-15T04:36:17.589Z,21.10
2023-04-15T04:37:17.745Z,20.40
2023-04-15T04:38:17.898Z,19.30
2023-04-15T04:39:18.072Z,19.70
2023-04-15T04:40:18.250Z,20.20
2023-04-15T04:41:18.428Z,20.50
2023-04-15T04:42:18.586Z,18.90
2023-04-15T04:43:18.748Z,19.60
2023-04-15T04:44:18.918Z,18.80
2023-04-15T04:45:19.107Z,19.00
2023-04-15T04:46:19.316Z,19.50
2023-04-15T04:47:19.428Z,20.20
2023-04-15T04:48:19.592Z,19.40
2023-04-15T04:49:19.777Z,20.60
2023-04-15T04:50:19.942Z,18.80
2023-04-15T04:51:20.105Z,19.50
2023-04-15T04:52:20.258Z,18.80
2023-04-15T04:53:20.438Z,19.90
2023-04-15T04:54:20.602Z,18.70
2023-04-15T04:55:20.788Z,18.90
2023-04-15T04:56:20.954Z,17.70
2023-04-15T04:57:21.209Z,18.90
2023-04-15T04:58:21.309Z,19.30
2023-04-15T04:59:21.493Z,19.30
2023-04-15T05:00:21.668Z,19.80
2023-04-15T05:01:21.844Z,18.60
2023-04-15T05:02:22.111Z,18.90
2023-04-15T05:03:22.384Z,18.40
2023-04-15T05:04:22.328Z,18.50
2023-04-15T05:05:22.513Z,18.40
2023-04-15T05:06:22.662Z,17.80
2023-04-15T05:07:22.835Z,18.90
2023-04-15T05:08:23.014Z,18.90
2023-04-15T05:09:23.177Z,18.10
2023-04-15T05:10:23.357Z,18.30
2023-04-15T05:11:23.519Z,18.50
2023-04-15T05:12:23.685Z,18.00
2023-04-15T05:13:23.856Z,19.00
2023-04-15T05:14:24.018Z,17.70
2023-04-15T05:15:24.222Z,17.70
2023-04-15T05:16:24.364Z,17.90
2023-04-15T05:17:24.562Z,18.00
2023-04-15T05:18:24.689Z,18.30
2023-04-15T05:19:24.880Z,16.90
2023-04-15T05:20:25.045Z,18.80
2023-04-15T05:21:25.292Z,17.10
2023-04-15T05:22:25.394Z,16.20
2023-04-15T05:23:25.566Z,17.30
2023-04-15T05:24:25.791Z,19.30
2023-04-15T05:25:25.922Z,19.20
2023-04-15T05:26:26.086Z,18.80
2023-04-15T05:27:26.258Z,19.60
2023-04-15T05:28:26.442Z,18.30
2023-04-15T05:29:26.606Z,18.10
2023-04-15T05:30:26.783Z,18.30
2023-04-15T05:31:26.982Z,18.40
2023-04-15T05:32:27.177Z,20.30
2023-04-15T05:33:27.311Z,16.90
2023-04-15T05:34:27.454Z,17.20
2023-04-15T05:35:27.634Z,18.10
2023-04-15T05:36:27.785Z,17.80
2023-04-15T05:37:27.973Z,17.30
2023-04-15T05:38:28.138Z,17.60
2023-04-15T05:39:28.338Z,18.10
2023-04-15T05:40:28.485Z,18.40
2023-04-15T05:41:28.655Z,17.70
2023-04-15T05:42:28.817Z,17.20
2023-04-15T05:43:29.002Z,17.30
2023-04-15T05:44:29.190Z,17.30
2023-04-15T05:45:29.347Z,17.40
2023-04-15T05:46:29.593Z,18.00
2023-04-15T05:47:29.759Z,17.10
2023-04-15T05:48:29.878Z,17.60
2023-04-15T05:49:30.083Z,17.30
2023-04-15T05:50:30.216Z,19.30
2023-04-15T05:51:30.396Z,18.10
2023-04-15T05:52:30.582Z,17.30
2023-04-15T05:53:30.763Z,18.40
2023-04-15T05:54:30.968Z,16.90
2023-04-15T05:55:31.142Z,17.20
2023-04-15T05:56:31.305Z,16.60
2023-04-15T05:57:31.495Z,17.40
2023-04-15T05:58:31.669Z,18.10
2023-04-15T05:59:31.849Z,17.20
2023-04-15T06:00:32.055Z,18.30
2023-04-15T06:01:32.198Z,16.10
2023-04-15T06:02:32.434Z,16.50
2023-04-15T06:03:32.670Z,15.70
2023-04-15T06:04:32.899Z,15.70
2023-04-15T06:05:32.882Z,15.10
2023-04-15T06:06:33.039Z,16.50
2023-04-15T06:07:33.238Z,16.40
2023-04-15T06:08:33.404Z,15.00
2023-04-15T06:09:33.568Z,14.80
2023-04-15T06:10:33.758Z,16.50
2023-04-15T06:11:33.923Z,15.80
2023-04-15T06:12:34.121Z,15.00
2023-04-15T06:13:34.264Z,14.00
2023-04-15T06:14:34.444Z,14.40
2023-04-15T06:15:34.635Z,14.70
2023-04-15T06:16:34.804Z,14.80
2023-04-15T06:17:34.991Z,14.70
2023-04-15T06:18:35.141Z,13.60
2023-04-15T06:19:35.318Z,14.60
2023-04-15T06:20:35.492Z,13.30
2023-04-15T06:21:35.642Z,14.50
2023-04-15T06:22:35.821Z,13.80
2023-04-15T06:23:35.988Z,14.10
2023-04-15T06:24:36.154Z,13.30
2023-04-15T06:25:36.338Z,13.20
2023-04-15T06:26:36.500Z,13.90
2023-04-15T06:27:36.659Z,13.50
2023-04-15T06:28:36.826Z,13.40
2023-04-15T06:29:36.989Z,13.00
2023-04-15T06:30:37.178Z,12.70
2023-04-15T06:31:37.376Z,12.00
2023-04-15T06:32:37.540Z,13.60
2023-04-15T06:33:37.680Z,13.10
2023-04-15T06:34:37.837Z,13.10
2023-04-15T06:35:38.019Z,13.80
2023-04-15T06:36:38.178Z,13.40
2023-04-15T06:37:38.368Z,12.60
2023-04-15T06:38:38.536Z,11.90
2023-04-15T06:39:38.701Z,11.60
2023-04-15T06:40:38.870Z,12.90
2023-04-15T06:41:39.058Z,12.60
2023-04-15T06:42:39.252Z,11.40
2023-04-15T06:43:39.416Z,12.20
2023-04-15T06:44:39.588Z,11.80
2023-04-15T06:45:39.793Z,11.90
2023-04-15T06:46:39.920Z,12.10
2023-04-15T06:47:40.128Z,11.50
2023-04-15T06:48:40.280Z,12.10
2023-04-15T06:49:40.475Z,12.50
2023-04-15T06:50:40.632Z,11.90
2023-04-15T06:51:40.795Z,11.50
2023-04-15T06:52:40.968Z,11.20
2023-04-15T06:53:41.160Z,11.20
2023-04-15T06:54:41.322Z,10.90
2023-04-15T06:55:41.519Z,10.80
2023-04-15T06:56:41.670Z,11.80
2023-04-15T06:57:41.900Z,10.60
2023-04-15T06:58:42.010Z,12.00
2023-04-15T06:59:42.172Z,12.10
2023-04-15T07:00:42.429Z,11.70
2023-04-15T07:01:42.530Z,11.60
2023-04-15T07:02:42.779Z,10.30
2023-04-15T07:03:42.906Z,11.90
2023-04-15T07:04:43.091Z,10.80
2023-04-15T07:05:43.270Z,11.60
2023-04-15T07:06:43.457Z,10.10
2023-04-15T07:07:43.619Z,9.80
2023-04-15T07:08:43.795Z,9.00
2023-04-15T07:09:43.968Z,9.80
2023-04-15T07:10:44.132Z,8.90
2023-04-15T07:11:44.320Z,8.60
2023-04-15T07:12:44.466Z,9.90
2023-04-15T07:13:44.645Z,9.20
2023-04-15T07:14:44.818Z,9.50
2023-04-15T07:15:44.997Z,9.10
2023-04-15T07:16:45.232Z,9.30
2023-04-15T07:17:45.434Z,8.90
2023-04-15T07:18:45.522Z,9.40
2023-04-15T07:19:45.699Z,8.80
2023-04-15T07:20:45.886Z,8.40
2023-04-15T07:21:46.062Z,8.30
2023-04-15T07:22:46.215Z,9.00
2023-04-15T07:23:46.396Z,8.90
2023-04-15T07:24:46.588Z,8.70
2023-04-15T07:25:46.748Z,9.40
2023-04-15T07:26:46.940Z,8.80
2023-04-15T07:27:47.095Z,8.70
2023-04-15T07:28:47.282Z,7.80
2023-04-15T07:29:47.455Z,8.30
2023-04-15T07:30:47.622Z,8.10
2023-04-15T07:31:47.770Z,7.90
2023-04-15T07:32:47.966Z,8.80
2023-04-15T07:33:48.137Z,8.90
2023-04-15T07:34:48.310Z,8.80
2023-04-15T07:35:48.506Z,8.80
2023-04-15T07:36:48.648Z,8.20
2023-04-15T07:37:48.838Z,8.50
2023-04-15T07:38:48.984Z,9.10
2023-04-15T07:39:49.181Z,8.70
2023-04-15T07:40:49.344Z,8.10
2023-04-15T07:41:49.585Z,8.50
2023-04-15T07:42:49.738Z,8.20
2023-04-15T07:43:49.889Z,8.10
2023-04-15T07:44:50.082Z,8.70
2023-04-15T07:45:50.269Z,8.20
2023-04-15T07:46:50.429Z,8.40
2023-04-15T07:47:50.631Z,8.10
2023-04-15T07:48:50.821Z,7.70
2023-04-15T07:49:50.945Z,8.70
2023-04-15T07:50:51.120Z,8.30
2023-04-15T07:51:51.275Z,7.80
2023-04-15T07:52:51.438Z,8.00
2023-04-15T07:53:51.627Z,8.40
2023-04-15T07:54:51.809Z,7.60
2023-04-15T07:55:51.987Z,7.90
2023-04-15T07:56:52.151Z,8.00
2023-04-15T07:57:52.334Z,8.30
2023-04-15T07:58:52.493Z,6.70
2023-04-15T07:59:52.757Z,8.30
2023-04-15T08:00:52.834Z,8.00
2023-04-15T08:01:53.038Z,7.60
2023-04-15T08:02:53.327Z,8.00
2023-04-15T08:03:53.508Z,7.20
2023-04-15T08:04:53.648Z,6.80
2023-04-15T08:05:53.764Z,7.70
2023-04-15T08:06:53.937Z,6.90
2023-04-15T08:07:54.113Z,6.90
2023-04-15T08:08:54.341Z,6.90
2023-04-15T08:09:54.483Z,6.70
2023-04-15T08:10:54.630Z,7.30
2023-04-15T08:11:54.812Z,7.10
2023-04-15T08:12:55.092Z,7.00
2023-04-15T08:13:55.171Z,6.70
2023-04-15T08:14:55.368Z,6.90
2023-04-15T08:15:55.587Z,6.70
2023-04-15T08:16:55.731Z,6.30
2023-04-15T08:17:55.948Z,7.10
2023-04-15T08:18:56.082Z,6.50
2023-04-15T08:19:56.253Z,7.00
2023-04-15T08:20:56.385Z,6.70
2023-04-15T08:21:56.573Z,6.60
2023-04-15T08:22:56.776Z,6.80
2023-04-15T08:23:56.936Z,6.80
2023-04-15T08:24:57.153Z,6.50
2023-04-15T08:25:57.311Z,6.50
2023-04-15T08:26:57.483Z,6.80
2023-04-15T08:27:57.690Z,7.20
2023-04-15T08:28:57.824Z,6.50
2023-04-15T08:29:58.024Z,6.50
2023-04-15T08:30:58.182Z,6.50
2023-04-15T08:31:58.447Z,6.60
2023-04-15T08:32:58.585Z,6.70
2023-04-15T08:33:58.675Z,6.30
2023-04-15T08:34:58.871Z,6.90
2023-04-15T08:35:59.013Z,7.00
2023-04-15T08:36:59.202Z,7.60
2023-04-15T08:37:59.391Z,6.90
2023-04-15T08:38:59.774Z,6.80
2023-04-15T08:39:59.742Z,6.20
2023-04-15T08:40:59.948Z,7.80
2023-04-15T08:42:00.068Z,6.70
2023-04-15T08:43:00.255Z,6.50
2023-04-15T08:44:00.410Z,6.30
2023-04-15T08:45:00.608Z,6.80
2023-04-15T08:46:00.753Z,6.20
2023-04-15T08:47:01.025Z,7.20
2023-04-15T08:48:01.125Z,6.70
2023-04-15T08:49:01.540Z,6.30
2023-04-15T08:50:01.496Z,6.50
2023-04-15T08:51:01.612Z,6.80
2023-04-15T08:52:01.807Z,7.00
2023-04-15T08:53:01.969Z,6.80
2023-04-15T08:54:02.144Z,6.80
2023-04-15T08:55:02.353Z,6.60
2023-04-15T08:56:02.511Z,7.40
2023-04-15T08:57:02.696Z,7.40
2023-04-15T08:58:02.856Z,6.70
2023-04-15T08:59:03.229Z,6.10
2023-04-15T09:00:04.788Z,7.20
2023-04-15T09:01:03.449Z,6.70
2023-04-15T09:02:03.593Z,8.10
2023-04-15T09:03:03.834Z,6.80
2023-04-15T09:04:03.959Z,7.00
2023-04-15T09:05:04.115Z,7.10
2023-04-15T09:06:04.291Z,7.20
2023-04-15T09:07:04.536Z,6.90
2023-04-15T09:08:04.702Z,7.10
2023-04-15T09:09:04.810Z,7.00
2023-04-15T09:10:05.006Z,7.10
2023-04-15T09:11:05.180Z,7.50
2023-04-15T09:12:05.326Z,7.20
2023-04-15T09:13:05.504Z,7.20
2023-04-15T09:14:05.687Z,6.90
2023-04-15T09:15:05.860Z,6.70
2023-04-15T09:16:06.034Z,6.80
2023-04-15T09:17:06.238Z,6.40
2023-04-15T09:18:06.353Z,6.90
2023-04-15T09:19:06.571Z,6.90
2023-04-15T09:20:06.729Z,6.90
2023-04-15T09:21:06.907Z,6.30
2023-04-15T09:22:07.090Z,7.20
2023-04-15T09:23:07.276Z,7.40
2023-04-15T09:24:07.467Z,7.00
2023-04-15T09:25:07.660Z,7.00
2023-04-15T09:26:07.806Z,7.10
2023-04-15T09:27:07.988Z,7.60
2023-04-15T09:28:08.173Z,6.70
2023-04-15T09:29:08.346Z,6.40
2023-04-15T09:30:08.501Z,7.10
2023-04-15T09:31:08.701Z,6.80
2023-04-15T09:32:08.826Z,7.60
2023-04-15T09:33:09.093Z,7.70
2023-04-15T09:34:09.183Z,7.10
2023-04-15T09:35:09.336Z,7.00
2023-04-15T09:36:09.579Z,6.40
2023-04-15T09:37:09.988Z,7.50
2023-04-15T09:38:10.086Z,7.80
2023-04-15T09:39:10.031Z,7.30
2023-04-15T09:40:10.207Z,7.20
2023-04-15T09:41:10.343Z,7.60
2023-04-15T09:42:10.523Z,7.00
2023-04-15T09:43:10.732Z,7.40
2023-04-15T09:44:10.869Z,7.10
2023-04-15T09:45:11.078Z,7.30
2023-04-15T09:46:11.334Z,7.20
2023-04-15T09:47:11.379Z,6.70
2023-04-15T09:48:11.557Z,6.70
2023-04-15T09:49:11.809Z,7.90
2023-04-15T09:50:11.917Z,6.90
2023-04-15T09:51:12.091Z,7.00
2023-04-15T09:52:12.268Z,7.00
2023-04-15T09:53:12.450Z,7.20
2023-04-15T09:54:12.651Z,7.40
2023-04-15T09:55:12.853Z,7.00
2023-04-15T09:56:12.957Z,6.40
2023-04-15T09:57:13.147Z,7.50
2023-04-15T09:58:13.322Z,7.10
2023-04-15T09:59:13.526Z,6.30
2023-04-15T10:00:13.660Z,7.00
2023-04-15T10:01:13.899Z,6.70
2023-04-15T10:02:14.072Z,7.10
2023-04-15T10:03:14.300Z,7.10
2023-04-15T10:04:14.507Z,7.40
2023-04-15T10:05:14.501Z,6.80
2023-04-15T10:06:14.671Z,7.10
2023-04-15T10:07:14.833Z,7.30
2023-04-15T10:08:15.029Z,7.30
2023-04-15T10:09:15.215Z,7.50
2023-04-15T10:10:15.391Z,7.70
2023-04-15T10:11:15.530Z,7.20
2023-04-15T10:12:15.696Z,7.90
2023-04-15T10:13:15.873Z,8.30
2023-04-15T10:14:16.057Z,7.80
2023-04-15T10:15:16.239Z,7.20
2023-04-15T10:16:16.484Z,8.10
2023-04-15T10:17:16.588Z,7.70
2023-04-15T10:18:16.783Z,7.70
2023-04-15T10:19:16.947Z,7.80
2023-04-15T10:20:17.107Z,7.80
2023-04-15T10:21:17.285Z,8.00
2023-04-15T10:22:17.470Z,8.80
2023-04-15T10:23:17.674Z,8.20
2023-04-15T10:24:17.823Z,7.70
2023-04-15T10:25:17.997Z,7.90
2023-04-15T10:26:18.168Z,7.70
2023-04-15T10:27:18.329Z,8.00
2023-04-15T10:28:18.511Z,8.40
2023-04-15T10:29:18.684Z,9.00
2023-04-15T10:30:18.835Z,7.90
2023-04-15T10:31:19.035Z,8.80
2023-04-15T10:32:19.279Z,7.50
2023-04-15T10:33:19.361Z,8.20
2023-04-15T10:34:19.502Z,7.50
2023-04-15T10:35:19.693Z,9.00
2023-04-15T10:36:19.877Z,7.90
2023-04-15T10:37:20.039Z,7.80
2023-04-15T10:38:20.237Z,8.10
2023-04-15T10:39:20.425Z,9.20
2023-04-15T10:40:20.576Z,8.40
2023-04-15T10:41:21.535Z,8.10
2023-04-15T10:42:20.959Z,8.10
2023-04-15T10:43:21.149Z,9.00
2023-04-15T10:44:21.299Z,8.60
2023-04-15T10:45:21.485Z,7.90
2023-04-15T10:46:21.710Z,7.60
2023-04-15T10:47:22.057Z,8.30
2023-04-15T10:48:22.049Z,8.30
2023-04-15T10:49:22.235Z,8.60
2023-04-15T10:50:22.415Z,7.80
2023-04-15T10:51:22.583Z,8.00
2023-04-15T10:52:22.750Z,8.50
2023-04-15T10:53:22.907Z,8.50
2023-04-15T10:54:23.058Z,8.10
2023-04-15T10:55:23.255Z,7.90
2023-04-15T10:56:23.418Z,8.70
2023-04-15T10:57:23.629Z,8.50
2023-04-15T10:58:23.786Z,9.30
2023-04-15T10:59:23.944Z,7.80
2023-04-15T11:00:24.110Z,8.10
2023-04-15T11:01:24.362Z,7.50
2023-04-15T11:02:24.671Z,8.50
2023-04-15T11:03:24.792Z,7.90
2023-04-15T11:04:24.982Z,9.00
2023-04-15T11:05:24.999Z,8.30
2023-04-15T11:06:25.185Z,8.10
2023-04-15T11:07:25.351Z,7.90
2023-04-15T11:08:25.494Z,8.00
2023-04-15T11:09:25.689Z,8.70
2023-04-15T11:10:25.992Z,7.30
2023-04-15T11:11:26.029Z,7.80
2023-04-15T11:12:26.262Z,8.60
2023-04-15T11:13:26.384Z,7.50
2023-04-15T11:14:26.576Z,7.90
2023-04-15T11:15:26.764Z,8.80
2023-04-15T11:16:26.920Z,7.60
2023-04-15T11:17:27.201Z,7.90
2023-04-15T11:18:27.281Z,7.20
2023-04-15T11:19:27.459Z,7.30
2023-04-15T11:20:27.584Z,7.50
2023-04-15T11:21:27.778Z,7.90
2023-04-15T11:22:27.947Z,8.50
2023-04-15T11:23:28.099Z,8.10
2023-04-15T11:24:28.282Z,8.10
2023-04-15T11:25:28.458Z,7.70
2023-04-15T11:26:28.604Z,8.00
2023-04-15T11:27:28.804Z,7.40
2023-04-15T11:28:29.022Z,7.90
2023-04-15T11:29:29.143Z,7.90
2023-04-15T11:30:29.320Z,7.40
2023-04-15T11:31:29.534Z,7.20
2023-04-15T11:32:29.739Z,7.70
2023-04-15T11:33:29.875Z,7.40
2023-04-15T11:34:30.027Z,8.10
2023-04-15T11:35:30.186Z,7.70
2023-04-15T11:36:30.356Z,7.80
2023-04-15T11:37:30.627Z,7.30
2023-04-15T11:38:30.730Z,7.50
2023-04-15T11:39:30.920Z,7.20
2023-04-15T11:40:31.096Z,7.70
2023-04-15T11:41:31.270Z,8.20
2023-04-15T11:42:42.799Z,7.80
2023-04-15T11:43:32.624Z,7.80
2023-04-15T11:44:31.797Z,8.00
2023-04-15T11:45:31.975Z,7.50
2023-04-15T11:46:32.338Z,7.50
2023-04-15T11:47:32.346Z,7.80
2023-04-15T11:48:32.476Z,8.00
2023-04-15T11:49:32.666Z,8.10
2023-04-15T11:50:32.885Z,7.50
2023-04-15T11:51:33.022Z,7.60
2023-04-15T11:52:33.161Z,8.50
2023-04-15T11:53:33.344Z,7.90
2023-04-15T11:54:33.499Z,7.90
2023-04-15T11:55:33.687Z,7.60
2023-04-15T11:56:33.859Z,7.50
2023-04-15T11:57:34.025Z,7.60
2023-04-15T11:58:34.193Z,8.80
2023-04-15T11:59:44.509Z,8.00
2023-04-15T12:00:35.511Z,7.60
2023-04-15T12:01:34.696Z,7.60
2023-04-15T12:02:34.986Z,7.90
2023-04-15T12:03:35.200Z,7.40
2023-04-15T12:04:35.416Z,8.00
2023-04-15T12:05:35.438Z,8.30
2023-04-15T12:06:35.585Z,8.10
2023-04-15T12:07:35.733Z,8.20
2023-04-15T12:08:35.919Z,7.50
2023-04-15T12:09:36.124Z,7.60
2023-04-15T12:10:36.291Z,7.60
2023-04-15T12:11:36.461Z,7.90
2023-04-15T12:12:36.637Z,8.30
2023-04-15T12:13:36.774Z,8.90
2023-04-15T12:14:36.992Z,7.80
2023-04-15T12:15:37.164Z,8.00
2023-04-15T12:16:48.126Z,8.20
2023-04-15T12:17:51.678Z,8.00
2023-04-15T12:18:38.715Z,7.70
2023-04-15T12:19:37.888Z,8.40
2023-04-15T12:20:38.041Z,8.80
2023-04-15T12:21:38.199Z,7.30
2023-04-15T12:22:38.383Z,8.00
2023-04-15T12:23:38.570Z,7.80
2023-04-15T12:24:38.750Z,8.20
2023-04-15T12:25:38.928Z,8.20
2023-04-15T12:26:39.064Z,8.70
2023-04-15T12:27:39.228Z,7.50
2023-04-15T12:28:39.398Z,7.60
2023-04-15T12:29:39.576Z,7.60
2023-04-15T12:30:39.750Z,7.00
2023-04-15T12:31:40.006Z,7.80
2023-04-15T12:32:42.217Z,7.20
2023-04-15T12:33:40.265Z,8.00
2023-04-15T12:34:40.546Z,7.90
2023-04-15T12:35:40.662Z,7.60
2023-04-15T12:36:40.775Z,6.90
2023-04-15T12:37:40.954Z,8.20
2023-04-15T12:38:41.115Z,7.40
2023-04-15T12:39:41.354Z,8.00
2023-04-15T12:40:41.492Z,8.00
2023-04-15T12:41:41.684Z,7.80
2023-04-15T12:42:41.840Z,7.60
2023-04-15T12:43:42.036Z,7.90
2023-04-15T12:44:42.230Z,7.60
2023-04-15T12:45:42.386Z,7.70
2023-04-15T12:46:42.574Z,8.40
2023-04-15T12:47:42.808Z,8.00
2023-04-15T12:48:42.924Z,7.90
2023-04-15T12:49:43.077Z,7.50
2023-04-15T12:50:43.267Z,7.30
2023-04-15T12:51:43.408Z,7.80
2023-04-15T12:52:43.588Z,7.70
2023-04-15T12:53:43.771Z,7.10
2023-04-15T12:54:43.955Z,7.50
2023-04-15T12:55:44.143Z,6.70
2023-04-15T12:56:44.314Z,6.80
2023-04-15T12:57:44.505Z,8.30
2023-04-15T12:58:44.869Z,7.30
2023-04-15T12:59:44.850Z,7.00
2023-04-15T13:00:45.033Z,7.30
2023-04-15T13:01:45.233Z,7.40
2023-04-15T13:02:45.490Z,7.50
2023-04-15T13:03:45.659Z,7.60
2023-04-15T13:04:45.740Z,7.40
2023-04-15T13:05:45.890Z,7.10
2023-04-15T13:06:46.056Z,7.60
2023-04-15T13:07:46.220Z,6.90